sensor_id;sensor_type;location;lat;lon;timestamp;pressure;altitude;pressure_sealevel;temperature;humidity
8890;BME280;4481;43.406;24.454;2023-04-26T00:02:04;76484.72;;;-144.09;100.00
8890;BME280;4481;43.406;24.454;2023-04-26T00:04:30;76499.34;;;-144.09;100.00
8890;BME280;4481;43.406;24.454;2023-04-26T00:06:56;76509.78;;;-144.09;100.00
8890;BME280;4481;43.406;24.454;2023-04-26T00:09:23;76501.44;;;-144.09;100.00
8890;BME280;4481;43.406;24.454;2023-04-26T00:11:49;76511.88;;;-144.09;100.00
8890;BME280;4481;43.406;24.454;2023-04-26T00:14:15;76493.06;;;-144.09;100.00
8890;BME280;4481;43.406;24.454;2023-04-26T00:16:41;76474.25;;;-144.09;100.00
8890;BME280;4481;43.406;24.454;2023-04-26T00:19:07;76472.19;;;-144.09;100.00
8890;BME280;4481;43.406;24.454;2023-04-26T00:21:34;76482.63;;;-144.09;100.00
8890;BME280;4481;43.406;24.454;2023-04-26T00:24:01;76493.06;;;-144.09;100.00
8890;BME280;4481;43.406;24.454;2023-04-26T00:26:28;76488.88;;;-144.09;100.00
8890;BME280;4481;43.406;24.454;2023-04-26T00:28:54;76490.97;;;-144.09;100.00
8890;BME280;4481;43.406;24.454;2023-04-26T00:31:20;76488.88;;;-144.09;100.00
8890;BME280;4481;43.406;24.454;2023-04-26T00:33:46;76493.06;;;-144.09;100.00
8890;BME280;4481;43.406;24.454;2023-04-26T00:36:12;76493.06;;;-144.09;100.00
8890;BME280;4481;43.406;24.454;2023-04-26T00:38:39;76509.78;;;-144.09;100.00
8890;BME280;4481;43.406;24.454;2023-04-26T00:41:06;76495.16;;;-144.09;100.00
8890;BME280;4481;43.406;24.454;2023-04-26T00:43:33;76499.34;;;-144.09;100.00
8890;BME280;4481;43.406;24.454;2023-04-26T00:45:59;76497.25;;;-144.09;100.00
8890;BME280;4481;43.406;24.454;2023-04-26T00:48:26;76490.97;;;-144.09;100.00
8890;BME280;4481;43.406;24.454;2023-04-26T00:50:52;76490.97;;;-144.09;100.00
8890;BME280;4481;43.406;24.454;2023-04-26T00:53:19;76484.72;;;-144.09;100.00
8890;BME280;4481;43.406;24.454;2023-04-26T00:55:46;76499.34;;;-144.09;100.00
8890;BME280;4481;43.406;24.454;2023-04-26T00:58:14;76493.06;;;-144.09;100.00
8890;BME280;4481;43.406;24.454;2023-04-26T01:00:40;76484.72;;;-144.09;100.00
8890;BME280;4481;43.406;24.454;2023-04-26T01:03:06;76505.59;;;-144.09;100.00
8890;BME280;4481;43.406;24.454;2023-04-26T01:05:32;76505.59;;;-144.09;100.00
8890;BME280;4481;43.406;24.454;2023-04-26T01:07:59;76511.88;;;-144.09;100.00
8890;BME280;4481;43.406;24.454;2023-04-26T01:10:27;76516.06;;;-144.09;100.00
8890;BME280;4481;43.406;24.454;2023-04-26T01:12:53;76518.16;;;-144.09;100.00
8890;BME280;4481;43.406;24.454;2023-04-26T01:15:21;76507.69;;;-144.09;100.00
8890;BME280;4481;43.406;24.454;2023-04-26T01:17:47;76501.44;;;-144.09;100.00
8890;BME280;4481;43.406;24.454;2023-04-26T01:20:14;76495.16;;;-144.09;100.00
8890;BME280;4481;43.406;24.454;2023-04-26T01:22:40;76497.25;;;-144.09;100.00
8890;BME280;4481;43.406;24.454;2023-04-26T01:25:10;76495.16;;;-144.09;100.00
8890;BME280;4481;43.406;24.454;2023-04-26T01:27:37;76505.59;;;-144.09;100.00
8890;BME280;4481;43.406;24.454;2023-04-26T01:30:03;76518.16;;;-144.09;100.00
8890;BME280;4481;43.406;24.454;2023-04-26T01:32:30;76501.44;;;-144.09;100.00
8890;BME280;4481;43.406;24.454;2023-04-26T01:34:56;76501.44;;;-144.09;100.00
8890;BME280;4481;43.406;24.454;2023-04-26T01:37:22;76493.06;;;-144.09;100.00
8890;BME280;4481;43.406;24.454;2023-04-26T01:39:50;76509.78;;;-144.09;100.00
8890;BME280;4481;43.406;24.454;2023-04-26T01:42:16;76493.06;;;-144.09;100.00
8890;BME280;4481;43.406;24.454;2023-04-26T01:44:42;76495.16;;;-144.09;100.00
8890;BME280;4481;43.406;24.454;2023-04-26T01:47:08;76499.34;;;-144.09;100.00
8890;BME280;4481;43.406;24.454;2023-04-26T01:49:34;76488.88;;;-144.09;100.00
8890;BME280;4481;43.406;24.454;2023-04-26T01:52:00;76488.88;;;-144.09;100.00
8890;BME280;4481;43.406;24.454;2023-04-26T01:54:27;76501.44;;;-144.09;100.00
8890;BME280;4481;43.406;24.454;2023-04-26T01:56:54;76505.59;;;-144.09;100.00
8890;BME280;4481;43.406;24.454;2023-04-26T01:59:20;76524.41;;;-144.09;100.00
8890;BME280;4481;43.406;24.454;2023-04-26T02:01:46;76520.22;;;-144.09;100.00
8890;BME280;4481;43.406;24.454;2023-04-26T02:04:12;76513.97;;;-144.09;100.00
8890;BME280;4481;43.406;24.454;2023-04-26T02:06:38;76505.59;;;-144.09;100.00
8890;BME280;4481;43.406;24.454;2023-04-26T02:09:06;76503.53;;;-144.09;100.00
8890;BME280;4481;43.406;24.454;2023-04-26T02:11:33;76501.44;;;-144.09;100.00
8890;BME280;4481;43.406;24.454;2023-04-26T02:14:00;76495.16;;;-144.09;100.00
8890;BME280;4481;43.406;24.454;2023-04-26T02:16:27;76501.44;;;-144.09;100.00
8890;BME280;4481;43.406;24.454;2023-04-26T02:18:53;76520.22;;;-144.09;100.00
8890;BME280;4481;43.406;24.454;2023-04-26T02:21:20;76497.25;;;-144.09;100.00
8890;BME280;4481;43.406;24.454;2023-04-26T02:23:46;76497.25;;;-144.09;100.00
8890;BME280;4481;43.406;24.454;2023-04-26T02:26:13;76509.78;;;-144.09;100.00
8890;BME280;4481;43.406;24.454;2023-04-26T02:28:39;76522.31;;;-144.09;100.00
8890;BME280;4481;43.406;24.454;2023-04-26T02:31:07;76545.31;;;-144.09;100.00
8890;BME280;4481;43.406;24.454;2023-04-26T02:33:33;76553.66;;;-144.09;100.00
8890;BME280;4481;43.406;24.454;2023-04-26T02:36:01;76559.94;;;-144.09;100.00
8890;BME280;4481;43.406;24.454;2023-04-26T02:38:28;76547.41;;;-144.09;100.00
8890;BME280;4481;43.406;24.454;2023-04-26T02:40:57;76559.94;;;-144.09;100.00
8890;BME280;4481;43.406;24.454;2023-04-26T02:43:23;76574.56;;;-144.09;100.00
8890;BME280;4481;43.406;24.454;2023-04-26T02:45:50;76597.56;;;-144.09;100.00
8890;BME280;4481;43.406;24.454;2023-04-26T02:48:16;76616.34;;;-144.09;100.00
8890;BME280;4481;43.406;24.454;2023-04-26T02:50:43;76620.53;;;-144.09;100.00
8890;BME280;4481;43.406;24.454;2023-04-26T02:53:09;76641.44;;;-144.09;100.00
8890;BME280;4481;43.406;24.454;2023-04-26T02:55:35;76643.53;;;-144.09;100.00
8890;BME280;4481;43.406;24.454;2023-04-26T02:58:02;76643.53;;;-144.09;100.00
8890;BME280;4481;43.406;24.454;2023-04-26T03:00:28;76641.44;;;-144.09;100.00
8890;BME280;4481;43.406;24.454;2023-04-26T03:02:54;76635.16;;;-144.09;100.00
8890;BME280;4481;43.406;24.454;2023-04-26T03:05:22;76624.72;;;-144.09;100.00
8890;BME280;4481;43.406;24.454;2023-04-26T03:07:48;76628.91;;;-144.09;100.00
8890;BME280;4481;43.406;24.454;2023-04-26T03:10:14;76637.25;;;-144.09;100.00
8890;BME280;4481;43.406;24.454;2023-04-26T03:12:40;76649.78;;;-144.09;100.00
8890;BME280;4481;43.406;24.454;2023-04-26T03:15:07;76660.25;;;-144.09;100.00
8890;BME280;4481;43.406;24.454;2023-04-26T03:17:34;76660.25;;;-144.09;100.00
8890;BME280;4481;43.406;24.454;2023-04-26T03:20:00;76672.78;;;-144.09;100.00
8890;BME280;4481;43.406;24.454;2023-04-26T03:22:26;76660.25;;;-144.09;100.00
8890;BME280;4481;43.406;24.454;2023-04-26T03:24:52;76664.41;;;-144.09;100.00
8890;BME280;4481;43.406;24.454;2023-04-26T03:27:19;76676.94;;;-144.09;100.00
8890;BME280;4481;43.406;24.454;2023-04-26T03:29:45;76664.41;;;-144.09;100.00
8890;BME280;4481;43.406;24.454;2023-04-26T03:32:11;76672.78;;;-144.09;100.00
8890;BME280;4481;43.406;24.454;2023-04-26T03:34:37;76681.13;;;-144.09;100.00
8890;BME280;4481;43.406;24.454;2023-04-26T03:37:03;76681.13;;;-144.09;100.00
8890;BME280;4481;43.406;24.454;2023-04-26T03:39:30;76699.94;;;-144.09;100.00
8890;BME280;4481;43.406;24.454;2023-04-26T03:41:56;76710.38;;;-144.09;100.00
8890;BME280;4481;43.406;24.454;2023-04-26T03:44:22;76697.84;;;-144.09;100.00
8890;BME280;4481;43.406;24.454;2023-04-26T03:46:48;76727.09;;;-144.09;100.00
8890;BME280;4481;43.406;24.454;2023-04-26T03:49:15;76750.09;;;-144.09;100.00
8890;BME280;4481;43.406;24.454;2023-04-26T03:51:41;76758.44;;;-144.09;100.00
8890;BME280;4481;43.406;24.454;2023-04-26T03:54:07;76748.00;;;-144.09;100.00
8890;BME280;4481;43.406;24.454;2023-04-26T03:56:34;76750.09;;;-144.09;100.00
8890;BME280;4481;43.406;24.454;2023-04-26T03:59:01;76716.66;;;-144.09;100.00
8890;BME280;4481;43.406;24.454;2023-04-26T04:01:27;76725.00;;;-144.09;100.00
8890;BME280;4481;43.406;24.454;2023-04-26T04:03:53;76720.84;;;-144.09;100.00
8890;BME280;4481;43.406;24.454;2023-04-26T04:06:19;76727.09;;;-144.09;100.00
8890;BME280;4481;43.406;24.454;2023-04-26T04:08:46;76714.56;;;-144.09;100.00
8890;BME280;4481;43.406;24.454;2023-04-26T04:11:12;76718.75;;;-144.09;100.00
8890;BME280;4481;43.406;24.454;2023-04-26T04:13:39;76712.47;;;-144.09;100.00
8890;BME280;4481;43.406;24.454;2023-04-26T04:16:05;76695.75;;;-144.09;100.00
8890;BME280;4481;43.406;24.454;2023-04-26T04:18:34;76691.56;;;-144.09;100.00
8890;BME280;4481;43.406;24.454;2023-04-26T04:21:00;76670.69;;;-144.09;100.00
8890;BME280;4481;43.406;24.454;2023-04-26T04:23:26;76658.16;;;-144.09;100.00
8890;BME280;4481;43.406;24.454;2023-04-26T04:25:53;76649.78;;;-144.09;100.00
8890;BME280;4481;43.406;24.454;2023-04-26T04:28:19;76651.88;;;-144.09;100.00
8890;BME280;4481;43.406;24.454;2023-04-26T04:30:47;76637.25;;;-144.09;100.00
8890;BME280;4481;43.406;24.454;2023-04-26T04:33:13;76618.44;;;-144.09;100.00
8890;BME280;4481;43.406;24.454;2023-04-26T04:35:40;76620.53;;;-144.09;100.00
8890;BME280;4481;43.406;24.454;2023-04-26T04:38:06;76610.09;;;-144.09;100.00
8890;BME280;4481;43.406;24.454;2023-04-26T04:40:33;76616.34;;;-144.09;100.00
8890;BME280;4481;43.406;24.454;2023-04-26T04:42:59;76599.63;;;-144.09;100.00
8890;BME280;4481;43.406;24.454;2023-04-26T04:45:26;76580.84;;;-144.09;100.00
8890;BME280;4481;43.406;24.454;2023-04-26T04:47:53;76564.13;;;-144.09;100.00
8890;BME280;4481;43.406;24.454;2023-04-26T04:50:20;76539.03;;;-144.09;100.00
8890;BME280;4481;43.406;24.454;2023-04-26T04:52:48;76513.97;;;-144.09;100.00
8890;BME280;4481;43.406;24.454;2023-04-26T04:55:14;76488.88;;;-144.09;100.00
8890;BME280;4481;43.406;24.454;2023-04-26T04:57:41;76455.47;;;-144.09;100.00
8890;BME280;4481;43.406;24.454;2023-04-26T05:00:08;76440.84;;;-144.09;100.00
8890;BME280;4481;43.406;24.454;2023-04-26T05:02:35;76411.56;;;-144.09;100.00
8890;BME280;4481;43.406;24.454;2023-04-26T05:05:02;76388.59;;;-144.09;100.00
8890;BME280;4481;43.406;24.454;2023-04-26T05:07:30;76359.34;;;-144.09;100.00
8890;BME280;4481;43.406;24.454;2023-04-26T05:09:56;76344.72;;;-144.09;100.00
8890;BME280;4481;43.406;24.454;2023-04-26T05:12:22;76309.19;;;-144.09;100.00
8890;BME280;4481;43.406;24.454;2023-04-26T05:14:50;76263.22;;;-144.09;100.00
8890;BME280;4481;43.406;24.454;2023-04-26T05:17:16;76215.19;;;-144.09;100.00
8890;BME280;4481;43.406;24.454;2023-04-26T05:19:42;76208.91;;;-144.09;100.00
8890;BME280;4481;43.406;24.454;2023-04-26T05:22:09;76183.84;;;-144.09;100.00
8890;BME280;4481;43.406;24.454;2023-04-26T05:24:35;76167.13;;;-144.09;100.00
8890;BME280;4481;43.406;24.454;2023-04-26T05:27:01;76137.88;;;-144.09;100.00
8890;BME280;4481;43.406;24.454;2023-04-26T05:29:29;76112.78;;;-144.09;98.02
8890;BME280;4481;43.406;24.454;2023-04-26T05:31:56;76091.91;;;-144.09;98.41
8890;BME280;4481;43.406;24.454;2023-04-26T05:34:22;76062.66;;;-144.09;95.65
8890;BME280;4481;43.406;24.454;2023-04-26T05:36:48;76066.84;;;-144.09;95.22
8890;BME280;4481;43.406;24.454;2023-04-26T05:39:15;76041.75;;;-144.09;95.24
8890;BME280;4481;43.406;24.454;2023-04-26T05:41:41;75972.81;;;-144.09;95.10
8890;BME280;4481;43.406;24.454;2023-04-26T05:44:07;76002.06;;;-144.09;93.34
8890;BME280;4481;43.406;24.454;2023-04-26T06:23:57;75928.94;;;-144.09;86.12
8890;BME280;4481;43.406;24.454;2023-04-26T06:26:24;75920.59;;;-144.09;87.13
8890;BME280;4481;43.406;24.454;2023-04-26T06:28:50;75912.22;;;-144.09;87.19
8890;BME280;4481;43.406;24.454;2023-04-26T06:31:16;75862.09;;;-144.09;87.29
8890;BME280;4481;43.406;24.454;2023-04-26T06:33:42;75891.34;;;-144.09;85.72
8890;BME280;4481;43.406;24.454;2023-04-26T06:36:10;75882.97;;;-144.09;86.77
8890;BME280;4481;43.406;24.454;2023-04-26T06:38:37;75870.44;;;-144.09;85.71
8890;BME280;4481;43.406;24.454;2023-04-26T06:41:04;75887.16;;;-144.09;85.99
8890;BME280;4481;43.406;24.454;2023-04-26T06:43:30;75880.91;;;-144.09;86.50
8890;BME280;4481;43.406;24.454;2023-04-26T06:45:56;75897.59;;;-144.09;85.31
8890;BME280;4481;43.406;24.454;2023-04-26T06:48:23;75899.69;;;-144.09;86.46
8890;BME280;4481;43.406;24.454;2023-04-26T06:50:52;75916.41;;;-144.09;86.67
8890;BME280;4481;43.406;24.454;2023-04-26T06:53:18;75885.06;;;-144.09;85.49
8890;BME280;4481;43.406;24.454;2023-04-26T06:55:44;75872.53;;;-144.09;84.88
8890;BME280;4481;43.406;24.454;2023-04-26T06:58:13;75941.47;;;-144.09;84.96
8890;BME280;4481;43.406;24.454;2023-04-26T07:00:39;75960.28;;;-144.09;85.80
8890;BME280;4481;43.406;24.454;2023-04-26T07:03:05;75987.44;;;-144.09;86.48
8890;BME280;4481;43.406;24.454;2023-04-26T07:05:31;75977.00;;;-144.09;86.55
8890;BME280;4481;43.406;24.454;2023-04-26T07:07:57;75966.56;;;-144.09;87.46
8890;BME280;4481;43.406;24.454;2023-04-26T07:10:24;75956.09;;;-144.09;86.76
8890;BME280;4481;43.406;24.454;2023-04-26T07:12:51;75983.25;;;-144.09;87.62
8890;BME280;4481;43.406;24.454;2023-04-26T07:15:18;75985.34;;;-144.09;88.26
8890;BME280;4481;43.406;24.454;2023-04-26T07:17:45;75987.44;;;-144.09;88.41
8890;BME280;4481;43.406;24.454;2023-04-26T07:20:12;75987.44;;;-144.09;88.34
8890;BME280;4481;43.406;24.454;2023-04-26T07:22:40;75991.63;;;-144.09;87.21
8890;BME280;4481;43.406;24.454;2023-04-26T07:25:09;75970.72;;;-144.09;87.12
8890;BME280;4481;43.406;24.454;2023-04-26T07:27:35;75922.69;;;-144.09;87.69
8890;BME280;4481;43.406;24.454;2023-04-26T07:30:01;75962.38;;;-144.09;87.93
8890;BME280;4481;43.406;24.454;2023-04-26T07:32:28;75964.47;;;-144.09;87.16
8890;BME280;4481;43.406;24.454;2023-04-26T07:34:54;75970.72;;;-144.09;87.74
8890;BME280;4481;43.406;24.454;2023-04-26T07:37:21;75962.38;;;-144.09;86.76
8890;BME280;4481;43.406;24.454;2023-04-26T07:39:47;75972.81;;;-144.09;86.53
8890;BME280;4481;43.406;24.454;2023-04-26T07:42:14;75966.56;;;-144.09;86.35
8890;BME280;4481;43.406;24.454;2023-04-26T07:44:40;75966.56;;;-144.09;87.14
8890;BME280;4481;43.406;24.454;2023-04-26T07:47:10;75947.75;;;-144.09;86.40
8890;BME280;4481;43.406;24.454;2023-04-26T07:49:38;75993.72;;;-144.09;86.12
8890;BME280;4481;43.406;24.454;2023-04-26T07:52:07;75997.88;;;-144.09;86.63
8890;BME280;4481;43.406;24.454;2023-04-26T07:54:33;76008.34;;;-144.09;87.73
8890;BME280;4481;43.406;24.454;2023-04-26T07:57:00;76018.78;;;-144.09;87.65
8890;BME280;4481;43.406;24.454;2023-04-26T07:59:27;76018.78;;;-144.09;86.76
8890;BME280;4481;43.406;24.454;2023-04-26T08:01:53;76025.06;;;-144.09;86.59
8890;BME280;4481;43.406;24.454;2023-04-26T08:04:28;76020.88;;;-144.09;86.69
8890;BME280;4481;43.406;24.454;2023-04-26T08:06:55;75999.97;;;-144.09;86.59
8890;BME280;4481;43.406;24.454;2023-04-26T08:09:22;75966.56;;;-144.09;87.33
8890;BME280;4481;43.406;24.454;2023-04-26T08:11:48;75922.69;;;-144.09;85.05
8890;BME280;4481;43.406;24.454;2023-04-26T08:14:14;75908.06;;;-144.09;84.30
8890;BME280;4481;43.406;24.454;2023-04-26T08:16:40;75889.25;;;-144.09;84.45
8890;BME280;4481;43.406;24.454;2023-04-26T08:19:09;75855.81;;;-144.09;84.22
8890;BME280;4481;43.406;24.454;2023-04-26T08:21:37;75849.56;;;-144.09;82.86
8890;BME280;4481;43.406;24.454;2023-04-26T08:24:05;75866.28;;;-144.09;82.00
8890;BME280;4481;43.406;24.454;2023-04-26T08:26:32;75851.66;;;-144.09;83.07
8890;BME280;4481;43.406;24.454;2023-04-26T08:28:59;75834.94;;;-144.09;83.23
8890;BME280;4481;43.406;24.454;2023-04-26T08:31:26;75811.97;;;-144.09;81.86
8890;BME280;4481;43.406;24.454;2023-04-26T08:33:52;75791.06;;;-144.09;82.17
8890;BME280;4481;43.406;24.454;2023-04-26T08:36:19;75805.69;;;-144.09;81.99
8890;BME280;4481;43.406;24.454;2023-04-26T08:38:47;75811.97;;;-144.09;82.33
8890;BME280;4481;43.406;24.454;2023-04-26T08:41:21;75795.25;;;-144.09;83.10
8890;BME280;4481;43.406;24.454;2023-04-26T08:43:48;75801.50;;;-144.09;83.31
8890;BME280;4481;43.406;24.454;2023-04-26T08:46:18;75799.41;;;-144.09;82.76
8890;BME280;4481;43.406;24.454;2023-04-26T08:48:48;75811.97;;;-144.09;82.83
8890;BME280;4481;43.406;24.454;2023-04-26T08:51:17;75761.81;;;-144.09;82.80
8890;BME280;4481;43.406;24.454;2023-04-26T08:53:44;75778.53;;;-144.09;82.08
8890;BME280;4481;43.406;24.454;2023-04-26T08:56:12;75774.34;;;-144.09;81.30
8890;BME280;4481;43.406;24.454;2023-04-26T08:58:39;75751.38;;;-144.09;82.31
8890;BME280;4481;43.406;24.454;2023-04-26T09:01:07;75743.00;;;-144.09;80.93
8890;BME280;4481;43.406;24.454;2023-04-26T09:03:34;75722.13;;;-144.09;81.22
8890;BME280;4481;43.406;24.454;2023-04-26T09:06:01;75720.03;;;-144.09;81.30
8890;BME280;4481;43.406;24.454;2023-04-26T09:08:28;75705.41;;;-144.09;82.07
8890;BME280;4481;43.406;24.454;2023-04-26T09:10:54;75694.97;;;-144.09;81.49
8890;BME280;4481;43.406;24.454;2023-04-26T09:13:27;75720.03;;;-144.09;80.57
8890;BME280;4481;43.406;24.454;2023-04-26T09:15:54;75720.03;;;-144.09;79.81
8890;BME280;4481;43.406;24.454;2023-04-26T09:18:22;75751.38;;;-144.09;79.21
8890;BME280;4481;43.406;24.454;2023-04-26T09:21:01;75774.34;;;-144.09;81.39
8890;BME280;4481;43.406;24.454;2023-04-26T09:23:28;75766.00;;;-144.09;82.65
8890;BME280;4481;43.406;24.454;2023-04-26T09:25:55;75761.81;;;-144.09;81.41
8890;BME280;4481;43.406;24.454;2023-04-26T09:28:22;75774.34;;;-144.09;81.77
8890;BME280;4481;43.406;24.454;2023-04-26T09:30:49;75757.63;;;-144.09;82.24
8890;BME280;4481;43.406;24.454;2023-04-26T09:33:16;75770.16;;;-144.09;81.97
8890;BME280;4481;43.406;24.454;2023-04-26T09:35:44;75740.94;;;-144.09;83.34
8890;BME280;4481;43.406;24.454;2023-04-26T09:38:11;75734.66;;;-144.09;81.91
8890;BME280;4481;43.406;24.454;2023-04-26T09:40:39;75751.38;;;-144.09;80.17
8890;BME280;4481;43.406;24.454;2023-04-26T09:43:07;75730.47;;;-144.09;79.70
8890;BME280;4481;43.406;24.454;2023-04-26T09:45:43;75755.53;;;-144.09;78.92
8890;BME280;4481;43.406;24.454;2023-04-26T09:48:16;75736.75;;;-144.09;75.60
8890;BME280;4481;43.406;24.454;2023-04-26T09:50:43;75726.31;;;-144.09;69.20
8890;BME280;4481;43.406;24.454;2023-04-26T09:53:09;75703.31;;;-144.09;69.43
8890;BME280;4481;43.406;24.454;2023-04-26T09:55:36;75701.22;;;-144.09;68.14
8890;BME280;4481;43.406;24.454;2023-04-26T09:58:07;75711.69;;;-144.09;67.18
8890;BME280;4481;43.406;24.454;2023-04-26T10:00:34;75709.59;;;-144.09;69.00
8890;BME280;4481;43.406;24.454;2023-04-26T10:03:03;75697.06;;;-144.09;70.39
8890;BME280;4481;43.406;24.454;2023-04-26T10:05:32;75755.53;;;-144.09;66.46
8890;BME280;4481;43.406;24.454;2023-04-26T10:07:58;75763.91;;;-144.09;66.42
8890;BME280;4481;43.406;24.454;2023-04-26T10:10:25;75770.16;;;-144.09;66.33
8890;BME280;4481;43.406;24.454;2023-04-26T10:12:51;75770.16;;;-144.09;67.66
8890;BME280;4481;43.406;24.454;2023-04-26T10:15:17;75726.31;;;-144.09;68.01
8890;BME280;4481;43.406;24.454;2023-04-26T10:17:44;75740.94;;;-144.09;67.38
8890;BME280;4481;43.406;24.454;2023-04-26T10:20:12;75734.66;;;-144.09;68.25
8890;BME280;4481;43.406;24.454;2023-04-26T10:22:44;75711.69;;;-144.09;66.79
8890;BME280;4481;43.406;24.454;2023-04-26T10:25:11;75705.41;;;-144.09;66.84
8890;BME280;4481;43.406;24.454;2023-04-26T10:27:48;75707.50;;;-144.09;66.59
8890;BME280;4481;43.406;24.454;2023-04-26T10:30:16;75724.22;;;-144.09;65.16
8890;BME280;4481;43.406;24.454;2023-04-26T10:36:04;75692.88;;;-144.09;63.97
8890;BME280;4481;43.406;24.454;2023-04-26T10:38:32;75676.16;;;-144.09;64.56
8890;BME280;4481;43.406;24.454;2023-04-26T10:41:26;75651.09;;;-144.09;64.61
8890;BME280;4481;43.406;24.454;2023-04-26T10:43:53;75655.28;;;-144.09;63.36
8890;BME280;4481;43.406;24.454;2023-04-26T10:46:39;75628.13;;;-144.09;62.90
8890;BME280;4481;43.406;24.454;2023-04-26T10:49:13;75584.25;;;-144.09;63.89
8890;BME280;4481;43.406;24.454;2023-04-26T10:51:40;75548.75;;;-144.09;61.97
8890;BME280;4481;43.406;24.454;2023-04-26T10:54:08;75544.56;;;-144.09;62.05
8890;BME280;4481;43.406;24.454;2023-04-26T10:56:52;75540.38;;;-144.09;60.50
8890;BME280;4481;43.406;24.454;2023-04-26T10:59:20;75555.00;;;-144.09;61.79
8890;BME280;4481;43.406;24.454;2023-04-26T11:01:46;75561.28;;;-144.09;61.84
8890;BME280;4481;43.406;24.454;2023-04-26T11:04:12;75586.34;;;-144.09;61.52
8890;BME280;4481;43.406;24.454;2023-04-26T11:06:49;75590.50;;;-144.09;61.47
8890;BME280;4481;43.406;24.454;2023-04-26T11:09:33;75613.50;;;-144.09;62.48
8890;BME280;4481;43.406;24.454;2023-04-26T11:12:00;75580.06;;;-144.09;63.05
8890;BME280;4481;43.406;24.454;2023-04-26T11:14:29;75542.47;;;-144.09;62.81
8890;BME280;4481;43.406;24.454;2023-04-26T11:16:55;75544.56;;;-144.09;61.03
8890;BME280;4481;43.406;24.454;2023-04-26T11:19:22;75632.28;;;-144.09;62.16
8890;BME280;4481;43.406;24.454;2023-04-26T11:21:48;75615.59;;;-144.09;61.88
8890;BME280;4481;43.406;24.454;2023-04-26T11:24:15;75598.88;;;-144.09;60.36
8890;BME280;4481;43.406;24.454;2023-04-26T11:26:41;75600.97;;;-144.09;60.37
8890;BME280;4481;43.406;24.454;2023-04-26T11:29:17;75567.53;;;-144.09;60.40
8890;BME280;4481;43.406;24.454;2023-04-26T11:31:50;75573.81;;;-144.09;60.83
8890;BME280;4481;43.406;24.454;2023-04-26T11:34:16;75557.09;;;-144.09;59.68
8890;BME280;4481;43.406;24.454;2023-04-26T11:36:43;75548.75;;;-144.09;59.52
8890;BME280;4481;43.406;24.454;2023-04-26T11:39:10;75557.09;;;-144.09;60.80
8890;BME280;4481;43.406;24.454;2023-04-26T11:41:37;75594.69;;;-144.09;59.00
8890;BME280;4481;43.406;24.454;2023-04-26T11:44:04;75571.72;;;-144.09;59.74
8890;BME280;4481;43.406;24.454;2023-04-26T11:46:31;75565.44;;;-144.09;60.06
8890;BME280;4481;43.406;24.454;2023-04-26T11:48:57;75565.44;;;-144.09;59.58
8890;BME280;4481;43.406;24.454;2023-04-26T11:51:24;75542.47;;;-144.09;59.99
8890;BME280;4481;43.406;24.454;2023-04-26T11:53:51;75521.59;;;-144.09;60.23
8890;BME280;4481;43.406;24.454;2023-04-26T11:56:18;75557.09;;;-144.09;60.33
8890;BME280;4481;43.406;24.454;2023-04-26T11:58:46;75565.44;;;-144.09;60.30
8890;BME280;4481;43.406;24.454;2023-04-26T12:01:19;75552.91;;;-144.09;60.44
8890;BME280;4481;43.406;24.454;2023-04-26T12:03:49;75609.31;;;-144.09;59.57
8890;BME280;4481;43.406;24.454;2023-04-26T12:06:15;75623.94;;;-144.09;59.49
8890;BME280;4481;43.406;24.454;2023-04-26T12:08:48;75655.28;;;-144.09;60.65
8890;BME280;4481;43.406;24.454;2023-04-26T12:11:15;75653.19;;;-144.09;60.72
8890;BME280;4481;43.406;24.454;2023-04-26T12:13:42;75657.38;;;-144.09;60.76
8890;BME280;4481;43.406;24.454;2023-04-26T12:16:08;75619.75;;;-144.09;60.39
8890;BME280;4481;43.406;24.454;2023-04-26T12:18:35;75584.25;;;-144.09;60.83
8890;BME280;4481;43.406;24.454;2023-04-26T12:21:02;75598.88;;;-144.09;58.88
8890;BME280;4481;43.406;24.454;2023-04-26T12:23:37;75577.97;;;-144.09;59.11
8890;BME280;4481;43.406;24.454;2023-04-26T12:26:04;75611.41;;;-144.09;58.82
8890;BME280;4481;43.406;24.454;2023-04-26T12:28:30;75630.22;;;-144.09;58.71
8890;BME280;4481;43.406;24.454;2023-04-26T12:30:56;75611.41;;;-144.09;59.01
8890;BME280;4481;43.406;24.454;2023-04-26T12:33:23;75600.97;;;-144.09;58.54
8890;BME280;4481;43.406;24.454;2023-04-26T12:35:50;75598.88;;;-144.09;57.89
8890;BME280;4481;43.406;24.454;2023-04-26T12:38:17;75586.34;;;-144.09;57.74
8890;BME280;4481;43.406;24.454;2023-04-26T12:40:43;75565.44;;;-144.09;57.84
8890;BME280;4481;43.406;24.454;2023-04-26T12:43:10;75532.03;;;-144.09;55.88
8890;BME280;4481;43.406;24.454;2023-04-26T12:45:36;75584.25;;;-144.09;55.37
8890;BME280;4481;43.406;24.454;2023-04-26T12:48:03;75584.25;;;-144.09;55.75
8890;BME280;4481;43.406;24.454;2023-04-26T12:50:29;75609.31;;;-144.09;57.02
8890;BME280;4481;43.406;24.454;2023-04-26T12:52:56;75617.66;;;-144.09;55.67
8890;BME280;4481;43.406;24.454;2023-04-26T12:55:22;75607.22;;;-144.09;56.45
8890;BME280;4481;43.406;24.454;2023-04-26T12:57:49;75607.22;;;-144.09;55.69
8890;BME280;4481;43.406;24.454;2023-04-26T13:00:16;75563.34;;;-144.09;56.67
8890;BME280;4481;43.406;24.454;2023-04-26T13:02:43;75565.44;;;-144.09;54.43
8890;BME280;4481;43.406;24.454;2023-04-26T13:05:09;75555.00;;;-144.09;56.79
8890;BME280;4481;43.406;24.454;2023-04-26T13:21:58;75546.66;;;-144.09;55.94
8890;BME280;4481;43.406;24.454;2023-04-26T13:24:24;75559.19;;;-144.09;54.86
8890;BME280;4481;43.406;24.454;2023-04-26T13:26:51;75557.09;;;-144.09;54.82
8890;BME280;4481;43.406;24.454;2023-04-26T13:29:17;75577.97;;;-144.09;57.26
8890;BME280;4481;43.406;24.454;2023-04-26T13:31:43;75594.69;;;-144.09;55.98
8890;BME280;4481;43.406;24.454;2023-04-26T13:34:10;75592.59;;;-144.09;55.30
8890;BME280;4481;43.406;24.454;2023-04-26T13:36:37;75582.16;;;-144.09;56.01
8890;BME280;4481;43.406;24.454;2023-04-26T13:39:04;75588.44;;;-144.09;55.94
8890;BME280;4481;43.406;24.454;2023-04-26T13:41:32;75621.84;;;-144.09;54.19